sensor_id;sensor_type;location;lat;lon;timestamp;temperature;humidity
8882;DHT22;4477;48.736;9.176;2023-04-06T09:24:07;3.90;53.20
8882;DHT22;4477;48.736;9.176;2023-04-06T09:26:46;14.40;40.50
8882;DHT22;4477;48.736;9.176;2023-04-06T09:29:22;14.20;40.10
8882;DHT22;4477;48.736;9.176;2023-04-06T09:31:52;14.10;39.40
8882;DHT22;4477;48.736;9.176;2023-04-06T09:34:22;14.40;39.10
8882;DHT22;4477;48.736;9.176;2023-04-06T09:36:49;14.40;38.30
8882;DHT22;4477;48.736;9.176;2023-04-06T09:39:20;14.10;38.30
8882;DHT22;4477;48.736;9.176;2023-04-06T09:41:50;14.30;41.30
8882;DHT22;4477;48.736;9.176;2023-04-06T09:44:17;14.50;34.80
8882;DHT22;4477;48.736;9.176;2023-04-06T09:46:45;13.90;34.80
8882;DHT22;4477;48.736;9.176;2023-04-06T09:49:13;13.00;36.50
8882;DHT22;4477;48.736;9.176;2023-04-06T09:51:44;13.00;37.40
8882;DHT22;4477;48.736;9.176;2023-04-06T09:54:12;12.70;38.50
8882;DHT22;4477;48.736;9.176;2023-04-06T10:58:52;12.80;39.00
8882;DHT22;4477;48.736;9.176;2023-04-06T11:01:22;14.60;37.10
8882;DHT22;4477;48.736;9.176;2023-04-06T12:03:14;15.00;35.50
8882;DHT22;4477;48.736;9.176;2023-04-06T12:05:41;18.60;30.00
8882;DHT22;4477;48.736;9.176;2023-04-06T12:08:08;18.80;30.60
8882;DHT22;4477;48.736;9.176;2023-04-06T12:10:34;19.20;29.60
8882;DHT22;4477;48.736;9.176;2023-04-06T12:13:01;19.10;29.20
8882;DHT22;4477;48.736;9.176;2023-04-06T12:15:30;18.90;29.10
8882;DHT22;4477;48.736;9.176;2023-04-06T12:17:57;18.40;28.90
8882;DHT22;4477;48.736;9.176;2023-04-06T12:20:23;18.60;27.70
8882;DHT22;4477;48.736;9.176;2023-04-06T12:22:50;18.60;27.70
8882;DHT22;4477;48.736;9.176;2023-04-06T12:25:18;17.50;29.30
8882;DHT22;4477;48.736;9.176;2023-04-06T12:27:45;17.40;29.50
8882;DHT22;4477;48.736;9.176;2023-04-06T12:30:13;17.10;29.60
8882;DHT22;4477;48.736;9.176;2023-04-06T12:32:41;18.20;31.30
8882;DHT22;4477;48.736;9.176;2023-04-06T12:37:37;18.40;27.60
8882;DHT22;4477;48.736;9.176;2023-04-06T12:40:05;18.80;29.10
8882;DHT22;4477;48.736;9.176;2023-04-06T12:42:32;19.30;28.80
8882;DHT22;4477;48.736;9.176;2023-04-06T12:44:59;19.40;26.40
8882;DHT22;4477;48.736;9.176;2023-04-06T12:47:26;18.40;27.00
8882;DHT22;4477;48.736;9.176;2023-04-06T12:49:54;18.10;28.90
8882;DHT22;4477;48.736;9.176;2023-04-06T12:52:22;19.10;29.70
8882;DHT22;4477;48.736;9.176;2023-04-06T12:54:49;20.10;26.60
8882;DHT22;4477;48.736;9.176;2023-04-06T12:57:16;20.00;28.00
8882;DHT22;4477;48.736;9.176;2023-04-06T12:59:43;20.60;27.00
8882;DHT22;4477;48.736;9.176;2023-04-06T13:02:10;20.60;26.40
8882;DHT22;4477;48.736;9.176;2023-04-06T13:04:37;20.50;26.40
8882;DHT22;4477;48.736;9.176;2023-04-06T13:07:06;20.70;26.80
8882;DHT22;4477;48.736;9.176;2023-04-06T13:09:32;20.80;27.30
8882;DHT22;4477;48.736;9.176;2023-04-06T13:11:59;21.70;25.70
8882;DHT22;4477;48.736;9.176;2023-04-06T13:14:26;22.20;26.70
8882;DHT22;4477;48.736;9.176;2023-04-06T13:16:53;22.00;23.70
8882;DHT22;4477;48.736;9.176;2023-04-06T13:19:20;21.50;24.00
8882;DHT22;4477;48.736;9.176;2023-04-06T13:21:47;20.90;23.90
8882;DHT22;4477;48.736;9.176;2023-04-06T13:24:15;20.40;24.40
8882;DHT22;4477;48.736;9.176;2023-04-06T13:26:42;19.20;24.30
8882;DHT22;4477;48.736;9.176;2023-04-06T13:29:09;18.60;26.20
8882;DHT22;4477;48.736;9.176;2023-04-06T13:31:36;18.10;27.30
8882;DHT22;4477;48.736;9.176;2023-04-06T13:36:31;17.80;26.30
8882;DHT22;4477;48.736;9.176;2023-04-06T13:38:58;17.80;28.60
8882;DHT22;4477;48.736;9.176;2023-04-06T13:41:28;18.30;26.60
8882;DHT22;4477;48.736;9.176;2023-04-06T13:43:55;18.90;28.70
8882;DHT22;4477;48.736;9.176;2023-04-06T13:46:23;20.60;25.60
8882;DHT22;4477;48.736;9.176;2023-04-06T13:48:50;21.50;25.20
8882;DHT22;4477;48.736;9.176;2023-04-06T13:51:17;21.90;23.30
8882;DHT22;4477;48.736;9.176;2023-04-06T13:53:44;21.30;24.50
8882;DHT22;4477;48.736;9.176;2023-04-06T13:58:39;20.40;25.30
8882;DHT22;4477;48.736;9.176;2023-04-06T15:10:11;17.90;28.50
8882;DHT22;4477;48.736;9.176;2023-04-06T15:12:38;17.60;28.20
8882;DHT22;4477;48.736;9.176;2023-04-06T17:15:30;17.60;29.90
8882;DHT22;4477;48.736;9.176;2023-04-06T17:17:57;10.20;47.00
8882;DHT22;4477;48.736;9.176;2023-04-06T17:20:24;9.90;48.20
8882;DHT22;4477;48.736;9.176;2023-04-06T21:14:13;9.90;48.60
8882;DHT22;4477;48.736;9.176;2023-04-06T21:16:40;6.60;74.10
8882;DHT22;4477;48.736;9.176;2023-04-06T21:19:07;6.30;76.40
8882;DHT22;4477;48.736;9.176;2023-04-06T21:46:08;6.20;79.20
8882;DHT22;4477;48.736;9.176;2023-04-06T21:48:35;5.10;96.80
8882;DHT22;4477;48.736;9.176;2023-04-06T21:51:02;5.10;99.20
8882;DHT22;4477;48.736;9.176;2023-04-06T21:53:29;5.00;99.90
8882;DHT22;4477;48.736;9.176;2023-04-06T21:55:56;4.90;99.90
8882;DHT22;4477;48.736;9.176;2023-04-06T21:58:23;4.80;99.90
8882;DHT22;4477;48.736;9.176;2023-04-06T22:00:51;4.80;99.90
8882;DHT22;4477;48.736;9.176;2023-04-06T22:03:19;4.70;99.90
8882;DHT22;4477;48.736;9.176;2023-04-06T22:05:46;4.70;99.90
8882;DHT22;4477;48.736;9.176;2023-04-06T22:08:13;4.60;99.90
8882;DHT22;4477;48.736;9.176;2023-04-06T22:10:40;4.70;99.90
8882;DHT22;4477;48.736;9.176;2023-04-06T22:13:06;4.70;99.90
8882;DHT22;4477;48.736;9.176;2023-04-06T22:15:33;4.70;99.90
8882;DHT22;4477;48.736;9.176;2023-04-06T22:18:02;4.70;99.90
8882;DHT22;4477;48.736;9.176;2023-04-06T22:20:29;4.70;99.90
8882;DHT22;4477;48.736;9.176;2023-04-06T22:22:56;4.70;99.90
8882;DHT22;4477;48.736;9.176;2023-04-06T22:25:23;4.70;99.90
8882;DHT22;4477;48.736;9.176;2023-04-06T22:27:50;4.60;99.90
8882;DHT22;4477;48.736;9.176;2023-04-06T22:30:17;4.70;99.90
8882;DHT22;4477;48.736;9.176;2023-04-06T22:32:44;4.60;99.90
8882;DHT22;4477;48.736;9.176;2023-04-06T22:35:12;4.60;99.90
8882;DHT22;4477;48.736;9.176;2023-04-06T22:37:40;4.60;99.90
8882;DHT22;4477;48.736;9.176;2023-04-06T22:40:09;4.60;99.90
8882;DHT22;4477;48.736;9.176;2023-04-06T22:42:36;4.50;99.90
8882;DHT22;4477;48.736;9.176;2023-04-06T22:45:03;4.60;99.90
8882;DHT22;4477;48.736;9.176;2023-04-06T22:47:30;4.50;99.90
8882;DHT22;4477;48.736;9.176;2023-04-06T22:49:59;4.50;99.90
8882;DHT22;4477;48.736;9.176;2023-04-06T22:52:29;4.50;99.90
8882;DHT22;4477;48.736;9.176;2023-04-06T22:55:00;4.40;99.90
8882;DHT22;4477;48.736;9.176;2023-04-06T22:57:26;4.40;99.90
8882;DHT22;4477;48.736;9.176;2023-04-06T22:59:54;4.40;99.90
8882;DHT22;4477;48.736;9.176;2023-04-06T23:02:21;4.40;99.90
8882;DHT22;4477;48.736;9.176;2023-04-06T23:04:47;4.40;99.90
8882;DHT22;4477;48.736;9.176;2023-04-06T23:07:14;4.40;99.90
8882;DHT22;4477;48.736;9.176;2023-04-06T23:09:43;4.30;99.90
8882;DHT22;4477;48.736;9.176;2023-04-06T23:12:10;4.40;99.90
8882;DHT22;4477;48.736;9.176;2023-04-06T23:14:37;4.40;99.90
8882;DHT22;4477;48.736;9.176;2023-04-06T23:17:04;4.40;99.90
8882;DHT22;4477;48.736;9.176;2023-04-06T23:19:31;4.30;99.90
8882;DHT22;4477;48.736;9.176;2023-04-06T23:21:57;4.40;99.90
8882;DHT22;4477;48.736;9.176;2023-04-06T23:24:25;4.30;99.90
8882;DHT22;4477;48.736;9.176;2023-04-06T23:26:54;4.30;99.90
8882;DHT22;4477;48.736;9.176;2023-04-06T23:29:21;4.30;99.90
8882;DHT22;4477;48.736;9.176;2023-04-06T23:31:48;4.30;99.90
8882;DHT22;4477;48.736;9.176;2023-04-06T23:34:15;4.30;99.90
8882;DHT22;4477;48.736;9.176;2023-04-06T23:36:42;4.30;99.90
8882;DHT22;4477;48.736;9.176;2023-04-06T23:39:08;4.30;99.90
8882;DHT22;4477;48.736;9.176;2023-04-06T23:41:36;4.30;99.90
8882;DHT22;4477;48.736;9.176;2023-04-06T23:44:04;4.30;99.90
8882;DHT22;4477;48.736;9.176;2023-04-06T23:46:31;4.30;99.90
8882;DHT22;4477;48.736;9.176;2023-04-06T23:48:58;4.30;99.90
8882;DHT22;4477;48.736;9.176;2023-04-06T23:51:25;4.30;99.90
8882;DHT22;4477;48.736;9.176;2023-04-06T23:53:52;4.30;99.90
8882;DHT22;4477;48.736;9.176;2023-04-06T23:56:18;4.30;99.90
8882;DHT22;4477;48.736;9.176;2023-04-06T23:58:46;4.30;99.90
